createdAt,value
2022-12-19T00:01:04.853Z,80.6
2022-12-19T00:04:07.941Z,80.8
2022-12-19T00:07:04.852Z,80.9
2022-12-19T00:10:04.858Z,80.9
2022-12-19T00:13:04.860Z,80.8
2022-12-19T00:16:05.000Z,80.9
2022-12-19T00:19:04.871Z,80.9
2022-12-19T00:22:08.321Z,80.9
2022-12-19T00:25:04.882Z,80.8
2022-12-19T00:28:04.883Z,80.8
2022-12-19T00:31:04.940Z,80.8
2022-12-19T00:34:05.010Z,80.8
2022-12-19T00:37:04.897Z,80.6
2022-12-19T00:40:04.899Z,80.4
2022-12-19T00:43:04.909Z,80.4
2022-12-19T00:46:04.959Z,80.4
2022-12-19T00:49:04.916Z,80.4
2022-12-19T00:52:05.035Z,80.4
2022-12-19T00:55:06.386Z,80.5
2022-12-19T00:58:04.924Z,80.5
2022-12-19T01:01:04.987Z,80.6
2022-12-19T01:04:27.526Z,80.7
2022-12-19T01:07:04.934Z,80.8
2022-12-19T01:10:05.058Z,80.8
2022-12-19T01:13:04.943Z,80.8
2022-12-19T01:16:04.983Z,80.8
2022-12-19T01:19:04.961Z,80.9
2022-12-19T01:22:04.961Z,80.8
2022-12-19T01:25:05.062Z,80.7
2022-12-19T01:28:10.961Z,80.6
2022-12-19T01:31:05.096Z,80.6
2022-12-19T01:34:04.988Z,80.5
2022-12-19T01:37:04.989Z,80.3
2022-12-19T01:40:04.997Z,80.3
2022-12-19T01:43:04.994Z,80.3
2022-12-19T01:46:05.041Z,80.3
2022-12-19T01:49:05.126Z,80.3
2022-12-19T01:52:05.010Z,80.4
2022-12-19T01:55:05.010Z,80.4
2022-12-19T01:58:04.989Z,80.4
2022-12-19T02:01:05.019Z,80.4
2022-12-19T02:04:04.994Z,80.2
2022-12-19T02:07:06.963Z,80.2
2022-12-19T02:10:05.003Z,80.2
2022-12-19T02:13:05.006Z,80.1
2022-12-19T02:16:05.015Z,80
2022-12-19T02:19:05.023Z,80.1
2022-12-19T02:22:05.020Z,80.1
2022-12-19T02:25:05.153Z,80.1
2022-12-19T02:28:05.030Z,80.1
2022-12-19T02:31:05.709Z,80
2022-12-19T02:34:05.036Z,80
2022-12-19T02:37:05.085Z,80.2
2022-12-19T02:40:05.050Z,80.3
2022-12-19T02:43:05.185Z,80.3
2022-12-19T02:46:05.099Z,80.5
2022-12-19T02:49:05.074Z,80.7
2022-12-19T02:52:05.068Z,81.1
2022-12-19T02:55:05.205Z,81.3
2022-12-19T02:58:05.082Z,81.7
2022-12-19T03:01:05.283Z,81.8
2022-12-19T03:04:05.092Z,81.9
2022-12-19T03:07:05.115Z,82
2022-12-19T03:10:05.106Z,82.3
2022-12-19T03:13:05.110Z,82.6
2022-12-19T03:16:05.121Z,82.8
2022-12-19T03:19:05.235Z,83
2022-12-19T03:22:05.115Z,83.2
2022-12-19T03:25:05.123Z,83.4
2022-12-19T03:28:05.129Z,83.5
2022-12-19T03:31:05.140Z,83.7
2022-12-19T03:34:05.129Z,83.9
2022-12-19T03:37:05.301Z,84.1
2022-12-19T03:40:05.144Z,84.2
2022-12-19T03:43:05.147Z,84.3
2022-12-19T03:46:05.201Z,84.5
2022-12-19T03:49:05.172Z,84.8
2022-12-19T03:52:05.183Z,85.1
2022-12-19T03:55:05.323Z,85.2
2022-12-19T03:58:05.204Z,85.5
2022-12-19T04:01:05.232Z,85.6
2022-12-19T04:04:05.214Z,85.7
2022-12-19T04:07:05.221Z,85.7
2022-12-19T04:10:05.227Z,85.6
2022-12-19T04:13:05.273Z,85.5
2022-12-19T04:16:05.284Z,85.5
2022-12-19T04:19:05.249Z,85.4
2022-12-19T04:22:05.255Z,85.4
2022-12-19T04:25:05.265Z,85.4
2022-12-19T04:28:05.266Z,85.5
2022-12-19T04:31:05.510Z,85.5
2022-12-19T04:34:05.273Z,85.6
2022-12-19T04:37:05.275Z,85.6
2022-12-19T04:40:05.280Z,85.7
2022-12-19T04:43:05.289Z,85.7
2022-12-19T04:46:05.379Z,85.8
2022-12-19T04:49:05.322Z,85.8
2022-12-19T04:52:05.300Z,85.8
2022-12-19T04:55:05.307Z,85.9
2022-12-19T04:58:05.325Z,86
2022-12-19T05:01:05.318Z,86.2
2022-12-19T05:04:05.387Z,86.4
2022-12-19T05:07:05.452Z,86.5
2022-12-19T05:10:05.326Z,86.6
2022-12-19T05:13:05.336Z,86.6
2022-12-19T05:16:05.443Z,86.8
2022-12-19T05:19:05.347Z,87
2022-12-19T05:22:05.368Z,87
2022-12-19T05:25:05.465Z,87.2
2022-12-19T05:28:05.359Z,87.3
2022-12-19T05:31:05.410Z,87.4
2022-12-19T05:34:05.389Z,87.4
2022-12-19T05:37:05.370Z,87.4
2022-12-19T05:40:05.369Z,87.3
2022-12-19T05:43:05.501Z,87.3
2022-12-19T05:46:05.426Z,87.2
2022-12-19T05:49:05.384Z,87.2
2022-12-19T05:52:05.393Z,87.3
2022-12-19T05:55:05.390Z,87.3
2022-12-19T05:58:05.398Z,87.3
2022-12-19T06:01:05.517Z,87.3
2022-12-19T06:04:05.421Z,87.3
2022-12-19T06:07:05.414Z,87.2
2022-12-19T06:10:05.429Z,87.2
2022-12-19T06:13:05.428Z,87.3
2022-12-19T06:16:05.430Z,87.4
2022-12-19T06:19:05.546Z,87.5
2022-12-19T06:22:05.435Z,87.6
2022-12-19T06:25:05.495Z,87.7
2022-12-19T06:28:05.455Z,87.8
2022-12-19T06:31:05.453Z,87.9
2022-12-19T06:34:05.458Z,88
2022-12-19T06:37:08.219Z,88
2022-12-19T06:40:05.475Z,88.1
2022-12-19T06:43:05.570Z,88.2
2022-12-19T06:46:05.516Z,88.2
2022-12-19T06:49:05.471Z,88.3
2022-12-19T06:52:09.085Z,88.3
2022-12-19T06:55:05.626Z,88.3
2022-12-19T06:58:05.478Z,88.4
2022-12-19T07:01:05.562Z,88.4
2022-12-19T07:04:05.491Z,88.3
2022-12-19T07:07:05.495Z,88.3
2022-12-19T07:10:05.507Z,88.4
2022-12-19T07:13:05.618Z,88.5
2022-12-19T07:16:05.572Z,88.7
2022-12-19T07:19:05.511Z,88.9
2022-12-19T07:22:05.516Z,89.1
2022-12-19T07:25:05.526Z,89.2
2022-12-19T07:28:05.531Z,89.4
2022-12-19T07:31:05.665Z,89.7
2022-12-19T07:34:05.558Z,89.7
2022-12-19T07:37:05.548Z,89.8
2022-12-19T07:40:05.542Z,90
2022-12-19T07:43:05.550Z,90.2
2022-12-19T07:46:05.613Z,90.4
2022-12-19T07:49:05.586Z,90.6
2022-12-19T07:52:05.561Z,90.8
2022-12-19T07:55:05.566Z,90.9
2022-12-19T07:58:05.569Z,91.1
2022-12-19T08:01:05.659Z,91.4
2022-12-19T08:04:05.580Z,91.4
2022-12-19T08:07:05.711Z,91.6
2022-12-19T08:10:05.588Z,91.7
2022-12-19T08:13:05.594Z,91.6
2022-12-19T08:16:05.596Z,91.8
2022-12-19T08:19:05.596Z,91.7
2022-12-19T08:22:05.601Z,91.8
2022-12-19T08:25:05.722Z,91.9
2022-12-19T08:28:05.612Z,91.9
2022-12-19T08:31:05.653Z,92
2022-12-19T08:34:05.618Z,92.2
2022-12-19T08:37:05.622Z,92.3
2022-12-19T08:40:05.626Z,92.5
2022-12-19T08:43:05.655Z,92.7
2022-12-19T08:46:05.649Z,93
2022-12-19T08:49:05.645Z,93.1
2022-12-19T08:52:05.647Z,93.3
2022-12-19T08:55:05.649Z,93.4
2022-12-19T08:58:05.655Z,93.5
2022-12-19T09:01:06.124Z,93.7
2022-12-19T09:04:50.233Z,93.8
2022-12-19T09:07:05.669Z,94
2022-12-19T09:10:05.680Z,94.2
2022-12-19T09:13:05.674Z,94.2
2022-12-19T09:16:05.681Z,94.3
2022-12-19T09:19:05.823Z,94.5
2022-12-19T09:22:05.686Z,94.6
2022-12-19T09:25:05.693Z,94.7
2022-12-19T09:31:05.749Z,95
2022-12-19T09:34:05.705Z,95.1
2022-12-19T09:37:05.826Z,95.2
2022-12-19T09:40:05.717Z,95.3
2022-12-19T09:43:05.719Z,95.4
2022-12-19T09:46:05.766Z,95.5
2022-12-19T09:49:05.732Z,95.6
2022-12-19T09:52:05.728Z,95.6
2022-12-19T09:55:05.857Z,95.7
2022-12-19T09:58:06.136Z,95.8
2022-12-19T10:01:05.778Z,95.8
2022-12-19T10:04:05.775Z,95.9
2022-12-19T10:07:16.591Z,95.9
2022-12-19T10:10:53.754Z,96
2022-12-19T10:13:12.125Z,96
2022-12-19T10:16:05.789Z,96.1
2022-12-19T10:19:05.760Z,96.1
2022-12-19T10:22:18.064Z,96.2
2022-12-19T10:25:06.743Z,96.2
2022-12-19T10:28:05.774Z,96.3
2022-12-19T10:31:12.699Z,96.3
2022-12-19T10:34:05.785Z,96.3
2022-12-19T10:37:20.994Z,96.3
2022-12-19T10:40:05.801Z,96.4
2022-12-19T10:43:09.781Z,96.4
2022-12-19T10:46:05.844Z,96.3
2022-12-19T10:49:05.952Z,96.4
2022-12-19T10:52:05.840Z,96.4
2022-12-19T10:55:05.859Z,96.5
2022-12-19T10:58:05.815Z,96.5
2022-12-19T11:01:05.845Z,96.5
2022-12-19T11:04:05.894Z,96.6
2022-12-19T11:07:05.987Z,96.6
2022-12-19T11:10:15.915Z,96.6
2022-12-19T11:13:32.275Z,96.7
2022-12-19T11:19:24.139Z,96.7
2022-12-19T11:22:33.806Z,96.7
2022-12-19T11:27:08.007Z,96.7
2022-12-19T11:30:24.199Z,96.8
2022-12-19T11:30:24.225Z,96.8
2022-12-19T11:34:05.873Z,96.9
2022-12-19T11:37:05.873Z,97
2022-12-19T11:40:05.871Z,96.9
2022-12-19T11:43:42.384Z,97
2022-12-19T11:46:05.878Z,97
2022-12-19T11:49:05.886Z,97
2022-12-19T11:52:05.893Z,97
2022-12-19T11:55:05.898Z,97
2022-12-19T11:58:05.902Z,97.1
2022-12-19T12:01:06.069Z,97.1
2022-12-19T12:04:05.951Z,97.1
2022-12-19T12:07:09.329Z,97.1
2022-12-19T12:12:35.101Z,97.1
2022-12-19T12:16:13.590Z,97
2022-12-19T12:21:52.026Z,97.1
2022-12-19T12:24:15.049Z,97
2022-12-19T12:31:03.368Z,97
2022-12-19T12:31:32.969Z,96.9
2022-12-19T12:31:37.367Z,97
2022-12-19T12:35:25.475Z,96.9
2022-12-19T12:40:06.000Z,96.8
2022-12-19T12:43:06.000Z,96.7
2022-12-19T12:46:06.049Z,96.7
2022-12-19T12:49:06.008Z,96.7
2022-12-19T12:52:06.013Z,96.6
2022-12-19T12:55:06.051Z,96.6
2022-12-19T12:58:09.140Z,96.5
2022-12-19T13:01:06.053Z,96.4
2022-12-19T13:04:06.025Z,96.1
2022-12-19T13:07:06.029Z,95.8
2022-12-19T13:10:06.038Z,95.5
2022-12-19T13:13:10.882Z,95.1
2022-12-19T13:16:06.063Z,94.7
2022-12-19T13:19:06.720Z,94.5
2022-12-19T13:22:06.055Z,94.3
2022-12-19T13:25:06.066Z,94.1
2022-12-19T13:28:06.061Z,94
2022-12-19T13:31:18.517Z,93.8
2022-12-19T13:34:06.074Z,93.8
2022-12-19T13:39:47.498Z,93.8
2022-12-19T13:40:11.869Z,93.7
2022-12-19T13:43:10.240Z,93.7
2022-12-19T13:46:06.146Z,93.8
2022-12-19T13:49:06.119Z,93.8
2022-12-19T13:52:06.095Z,93.7
2022-12-19T13:55:06.102Z,93.7
2022-12-19T13:58:06.106Z,93.6
2022-12-19T14:01:06.164Z,93.6
2022-12-19T14:04:08.286Z,93.6
2022-12-19T14:07:06.148Z,93.6
2022-12-19T14:11:27.462Z,93.6
2022-12-19T14:13:47.560Z,93.5
2022-12-19T14:16:06.194Z,93.5
2022-12-19T14:19:06.138Z,93.4
2022-12-19T14:22:14.455Z,93.4
2022-12-19T14:25:33.446Z,93.2
2022-12-19T14:28:22.789Z,93.1
2022-12-19T14:31:06.185Z,92.9
2022-12-19T14:37:06.158Z,92.7
2022-12-19T14:40:06.160Z,92.7
2022-12-19T14:43:58.068Z,92.3
2022-12-19T14:49:40.648Z,92.4
2022-12-19T14:50:25.609Z,92.2
2022-12-19T14:54:18.807Z,92.2
2022-12-19T14:56:11.815Z,92.1
2022-12-19T14:58:51.667Z,92
2022-12-19T15:01:08.613Z,92
2022-12-19T15:04:17.191Z,92.1
2022-12-19T15:07:11.641Z,92.3
2022-12-19T15:11:01.533Z,92.4
2022-12-19T15:13:46.784Z,92.5
2022-12-19T15:16:06.344Z,92.6
2022-12-19T15:19:06.268Z,92.7
2022-12-19T15:22:06.267Z,92.5
2022-12-19T15:25:06.248Z,92.5
2022-12-19T15:28:06.244Z,92.3
2022-12-19T15:31:06.331Z,92.2
2022-12-19T15:34:33.376Z,92
2022-12-19T15:37:06.289Z,91.8
2022-12-19T15:40:06.262Z,91.8
2022-12-19T15:43:06.277Z,91.7
2022-12-19T15:46:06.302Z,91.5
2022-12-19T15:49:06.267Z,91.4
2022-12-19T15:52:06.280Z,91.4
2022-12-19T15:55:06.312Z,91.4
2022-12-19T15:58:06.286Z,91.6
2022-12-19T16:01:06.288Z,91.8
2022-12-19T16:04:06.561Z,92
2022-12-19T16:07:06.298Z,92.1
2022-12-19T16:10:06.303Z,92.2
2022-12-19T16:13:06.325Z,92.3
2022-12-19T16:16:12.901Z,92.4
2022-12-19T16:19:06.315Z,92.5
2022-12-19T16:22:06.312Z,92.6
2022-12-19T16:25:06.314Z,92.7
2022-12-19T16:28:06.324Z,92.7
2022-12-19T16:31:06.408Z,92.7
2022-12-19T16:34:06.339Z,92.8
2022-12-19T16:37:06.458Z,92.7
2022-12-19T16:40:06.333Z,92.7
2022-12-19T16:43:06.335Z,92.7
2022-12-19T16:46:06.349Z,92.6
2022-12-19T16:49:06.372Z,92.4
2022-12-19T16:52:06.357Z,92.3
2022-12-19T16:55:06.353Z,92.1
2022-12-19T16:58:06.364Z,91.9
2022-12-19T17:01:06.388Z,91.4
2022-12-19T17:04:06.365Z,91.2
2022-12-19T17:07:06.393Z,90.9
2022-12-19T17:10:06.369Z,90.5
2022-12-19T17:13:06.376Z,90.5
2022-12-19T17:16:06.409Z,89.9
2022-12-19T17:19:06.370Z,89.8
2022-12-19T17:22:06.384Z,89.8
2022-12-19T17:25:06.413Z,89.2
2022-12-19T17:28:06.389Z,88.7
2022-12-19T17:31:06.418Z,88.3
2022-12-19T17:34:06.400Z,88.1
2022-12-19T17:37:06.404Z,87.6
2022-12-19T17:40:06.426Z,87.4
2022-12-19T17:43:06.437Z,87.1
2022-12-19T17:46:06.424Z,86.5
2022-12-19T17:49:06.419Z,86.6
2022-12-19T17:52:06.424Z,86.5
2022-12-19T17:55:12.153Z,86.2
2022-12-19T17:58:06.433Z,86.2
2022-12-19T18:01:06.509Z,86
2022-12-19T18:04:06.444Z,86.2
2022-12-19T18:07:06.447Z,86.1
2022-12-19T18:10:06.446Z,86
2022-12-19T18:13:06.450Z,85.8
2022-12-19T18:16:06.451Z,85.7
2022-12-19T18:19:06.485Z,85.5
2022-12-19T18:22:06.455Z,85.4
2022-12-19T18:25:06.468Z,84.8
2022-12-19T18:28:06.464Z,84.8
2022-12-19T18:31:06.517Z,84.9
2022-12-19T18:34:08.143Z,85.2
2022-12-19T18:37:06.505Z,85.4
2022-12-19T18:40:06.478Z,85.2
2022-12-19T18:43:06.484Z,85.4
2022-12-19T18:46:06.522Z,85.8
2022-12-19T18:49:06.485Z,86.2
2022-12-19T18:52:06.485Z,86.7
2022-12-19T18:55:06.512Z,87
2022-12-19T18:58:06.492Z,87.2
2022-12-19T19:01:06.510Z,87.5
2022-12-19T19:04:06.504Z,87.7
2022-12-19T19:07:06.496Z,87.8
2022-12-19T19:10:06.499Z,87.6
2022-12-19T19:13:10.109Z,87.5
2022-12-19T19:16:06.517Z,87.3
2022-12-19T19:19:06.499Z,87.2
2022-12-19T19:22:06.506Z,87.1
2022-12-19T19:25:06.504Z,87.1
2022-12-19T19:28:06.515Z,87.4
2022-12-19T19:31:06.584Z,87.4
2022-12-19T19:34:06.520Z,87.5
2022-12-19T19:37:06.516Z,87.5
2022-12-19T19:40:06.519Z,87.5
2022-12-19T19:43:06.533Z,87.4
2022-12-19T19:46:06.588Z,87.1
2022-12-19T19:49:06.550Z,86.8
2022-12-19T19:52:06.538Z,86.5
2022-12-19T19:55:06.548Z,86.5
2022-12-19T19:58:06.550Z,86
2022-12-19T20:01:06.599Z,85.8
2022-12-19T20:04:06.617Z,85.5
2022-12-19T20:07:06.597Z,85.4
2022-12-19T20:10:06.571Z,85.4
2022-12-19T20:13:06.578Z,85.3
2022-12-19T20:16:06.671Z,85.1
2022-12-19T20:19:06.590Z,84.7
2022-12-19T20:22:06.604Z,84.6
2022-12-19T20:25:06.625Z,84.3
2022-12-19T20:28:06.642Z,84.2
2022-12-19T20:31:06.664Z,84
2022-12-19T20:34:06.625Z,84.3
2022-12-19T20:37:06.661Z,84.6
2022-12-19T20:40:06.648Z,84.8
2022-12-19T20:43:06.675Z,85.1
2022-12-19T20:46:06.704Z,84.8
2022-12-19T20:49:06.667Z,84.9
2022-12-19T20:52:06.674Z,84.9
2022-12-19T20:55:06.693Z,84.9
2022-12-19T20:58:06.691Z,84.9
2022-12-19T21:01:06.721Z,84.6
2022-12-19T21:04:06.906Z,84.4
2022-12-19T21:07:06.713Z,84.2
2022-12-19T21:10:06.719Z,84.3
2022-12-19T21:13:06.729Z,84.5
2022-12-19T21:16:06.779Z,84.2
2022-12-19T21:19:06.773Z,83.9
2022-12-19T21:22:06.763Z,83.8
2022-12-19T21:25:06.762Z,83.6
2022-12-19T21:28:06.768Z,83.8
2022-12-19T21:31:06.840Z,83.7
2022-12-19T21:34:06.787Z,83.6
2022-12-19T21:37:06.827Z,83.6
2022-12-19T21:40:06.804Z,83.5
2022-12-19T21:43:11.594Z,83.5
2022-12-19T21:46:06.839Z,83.3
2022-12-19T21:49:06.833Z,83.3
2022-12-19T21:52:06.846Z,83
2022-12-19T21:55:06.871Z,83
2022-12-19T21:58:06.854Z,82.9
2022-12-19T22:01:08.231Z,82.9
2022-12-19T22:04:06.906Z,82.9
2022-12-19T22:07:06.873Z,82.9
2022-12-19T22:10:06.879Z,82.8
2022-12-19T22:13:06.911Z,82.8
2022-12-19T22:16:06.904Z,82.8
2022-12-19T22:19:06.904Z,82.8
2022-12-19T22:22:06.913Z,82.8
2022-12-19T22:25:06.911Z,82.9
2022-12-19T22:28:06.935Z,83
2022-12-19T22:31:06.976Z,83.2
2022-12-19T22:34:06.921Z,83.4
2022-12-19T22:37:06.974Z,83.5
2022-12-19T22:40:06.932Z,83.6
2022-12-19T22:43:06.933Z,83.9
2022-12-19T22:46:06.956Z,84.1
2022-12-19T22:49:06.974Z,84.2
2022-12-19T22:52:06.943Z,84.1
2022-12-19T22:55:06.954Z,84.1
2022-12-19T22:58:06.944Z,84.2
2022-12-19T23:01:06.951Z,84.3
2022-12-19T23:04:07.067Z,84.3
2022-12-19T23:07:06.976Z,84.4
2022-12-19T23:10:06.949Z,84.5
2022-12-19T23:13:06.953Z,84.7
2022-12-19T23:16:06.998Z,84.8
2022-12-19T23:19:06.959Z,84.9
2022-12-19T23:22:06.963Z,85
2022-12-19T23:25:06.987Z,85.1
2022-12-19T23:28:06.976Z,85.1
2022-12-19T23:31:06.975Z,85
2022-12-19T23:34:06.974Z,85.1
2022-12-19T23:37:11.439Z,85.1
2022-12-19T23:40:06.974Z,85.4
2022-12-19T23:43:07.009Z,85.6
2022-12-19T23:46:07.037Z,85.7
2022-12-19T23:49:06.982Z,85.7
2022-12-19T23:52:06.988Z,85.7
2022-12-19T23:55:06.982Z,85.7
2022-12-19T23:58:13.095Z,85.9
